»·PEaware :: DAL1430 KMSO-KSLC

DAL1430 :: KMSO-KSLC

FLIGHT INFORMATION

Flight Status: Arrived
Operator:
Delta Air Lines
More flights by this operator :: More flights under this callsign
Pilot: Ben F. (2808)
Aircraft: BOEING 727-200
(B722)
More flights by this aircraft type
Origin: KMSO Missoula Intl
United States
Destination: KSLC Salt Lake City Intl
United States
More flights between these airports :: More routes between these airports
Route: MZULA5 LKT PIH BEARR5
File this flight plan on PilotEdge
Remarks:
Altitude:
(Current/Filed)
31,000ft
Speed:
(Current/Filed)
482kts
Departed: 13-Nov-18 07:36 PM
Arrived: 13-Nov-18 08:35 PM
Distance/Time
Traveled:
379nm/0:58
Distance/Time
To Go:
Arrived

Flight Plot

Page will automatically refresh every two minutes.

Flight plan parsing failed; only flown route is shown


Map Options




Map Legend


Flown Route
Filed Route
Departure Airport
Arrival Airport
Navaid (VOR, NDB)
Fix

Horizontal Profiles

Position Reports

Time Latitude Longitude Heading Altitude Ground
Speed
13-Nov-18 19:11 46.918932 -114.085169 109 3217ft 0kts
13-Nov-18 19:12 46.918932 -114.085169 109 3217ft 0kts
13-Nov-18 19:13 46.918932 -114.085169 109 3217ft 0kts
13-Nov-18 19:14 46.918932 -114.085169 109 3217ft 0kts
13-Nov-18 19:15 46.918932 -114.085169 109 3217ft 0kts
13-Nov-18 19:16 46.918932 -114.085169 109 3217ft 0kts
13-Nov-18 19:17 46.918932 -114.085169 109 3217ft 0kts
13-Nov-18 19:18 46.918932 -114.085169 109 3217ft 0kts
13-Nov-18 19:19 46.918932 -114.085169 109 3217ft 0kts
13-Nov-18 19:20 46.918932 -114.085169 109 3217ft 0kts
13-Nov-18 19:21 46.918932 -114.085169 109 3217ft 0kts
13-Nov-18 19:22 46.918932 -114.085169 109 3217ft 0kts
13-Nov-18 19:23 46.918932 -114.085169 109 3217ft 0kts
13-Nov-18 19:24 46.918932 -114.085169 109 3217ft 0kts
13-Nov-18 19:25 46.918932 -114.085169 109 3217ft 0kts
13-Nov-18 19:26 46.918949 -114.085243 109 3217ft 2kts
13-Nov-18 19:27 46.919167 -114.086060 133 3217ft 2kts
13-Nov-18 19:28 46.919718 -114.086209 210 3217ft 2kts
13-Nov-18 19:29 46.919877 -114.086021 220 3217ft 0kts
13-Nov-18 19:30 46.919877 -114.086021 220 3217ft 0kts
13-Nov-18 19:31 46.919452 -114.086546 220 3217ft 0kts
13-Nov-18 19:32 46.919452 -114.086546 220 3217ft 0kts
13-Nov-18 19:33 46.919140 -114.087169 265 3217ft 11kts
13-Nov-18 19:34 46.918444 -114.091945 310 3217ft 22kts
13-Nov-18 19:35 46.923295 -114.100249 310 3217ft 26kts
13-Nov-18 19:36 46.925487 -114.105462 221 3217ft 0kts
13-Nov-18 19:37 46.925487 -114.105463 221 3217ft 0kts
13-Nov-18 19:38 46.924798 -114.106051 178 3217ft 12kts
13-Nov-18 19:39 46.911430 -114.083660 130 3274ft 177kts
13-Nov-18 19:40 46.867279 -114.068305 199 5468ft 183kts
13-Nov-18 19:41 46.813740 -114.066147 172 6682ft 236kts
13-Nov-18 19:42 46.738592 -114.049489 174 9273ft 285kts
13-Nov-18 19:43 46.659561 -114.033546 176 12305ft 298kts
13-Nov-18 19:44 46.586736 -114.019687 176 13862ft 337kts
13-Nov-18 19:45 46.490860 -114.070632 209 16686ft 337kts
13-Nov-18 19:46 46.394261 -114.083546 185 18736ft 361kts
13-Nov-18 19:47 46.292566 -114.084764 184 20634ft 374kts
13-Nov-18 19:48 46.204578 -114.085019 183 21977ft 386kts
13-Nov-18 19:49 46.079629 -114.085245 183 23719ft 398kts
13-Nov-18 19:50 45.968021 -114.085425 183 25055ft 408kts
13-Nov-18 19:51 45.876344 -114.085570 183 26021ft 416kts
13-Nov-18 19:52 45.760739 -114.085752 183 27093ft 424kts
13-Nov-18 19:53 45.642659 -114.085936 183 28080ft 432kts
13-Nov-18 19:54 45.513284 -114.086142 183 28968ft 441kts
13-Nov-18 19:55 45.411388 -114.086295 183 29720ft 444kts
13-Nov-18 19:56 45.288381 -114.086476 183 30660ft 444kts
13-Nov-18 19:57 45.165345 -114.086665 183 31489ft 445kts
13-Nov-18 19:58 45.039664 -114.085443 175 31648ft 464kts
13-Nov-18 19:59 44.917991 -114.014063 156 31656ft 488kts
13-Nov-18 20:00 44.799193 -113.932706 156 31654ft 503kts
13-Nov-18 20:01 44.675945 -113.848203 156 31633ft 509kts
13-Nov-18 20:02 44.548430 -113.761171 156 31625ft 512kts
13-Nov-18 20:03 44.420903 -113.674060 156 31626ft 514kts
13-Nov-18 20:04 44.292603 -113.586702 156 31627ft 516kts
13-Nov-18 20:05 44.163862 -113.499600 156 31650ft 518kts
13-Nov-18 20:06 44.034030 -113.412657 156 31655ft 520kts
13-Nov-18 20:07 43.906759 -113.327885 157 31650ft 523kts
13-Nov-18 20:08 43.780504 -113.244191 157 31648ft 522kts
13-Nov-18 20:09 43.656413 -113.162318 157 31649ft 521kts
13-Nov-18 20:10 43.526855 -113.077236 157 31649ft 520kts
13-Nov-18 20:11 43.397221 -112.992513 157 31650ft 520kts
13-Nov-18 20:12 43.267306 -112.908010 156 31651ft 521kts
13-Nov-18 20:13 43.136844 -112.823558 156 31653ft 522kts
13-Nov-18 20:14 43.005951 -112.739234 156 31655ft 525kts
13-Nov-18 20:15 42.878165 -112.658705 162 31640ft 526kts
13-Nov-18 20:16 42.738766 -112.613015 169 31651ft 525kts
13-Nov-18 20:17 42.596711 -112.570323 169 31652ft 527kts
13-Nov-18 20:18 42.455320 -112.528184 169 30462ft 513kts
13-Nov-18 20:19 42.319053 -112.487763 168 28484ft 499kts
13-Nov-18 20:20 42.184576 -112.455730 183 26507ft 486kts
13-Nov-18 20:21 42.053782 -112.461228 183 24631ft 473kts
13-Nov-18 20:22 41.927788 -112.468138 183 23562ft 446kts
13-Nov-18 20:23 41.814694 -112.474461 183 21383ft 446kts
13-Nov-18 20:24 41.701202 -112.480622 182 18813ft 399kts
13-Nov-18 20:25 41.596564 -112.486250 182 16197ft 362kts
13-Nov-18 20:26 41.512020 -112.456220 140 16009ft 329kts
13-Nov-18 20:27 41.439057 -112.371013 135 15972ft 357kts
13-Nov-18 20:28 41.372217 -112.286906 134 15967ft 331kts
13-Nov-18 20:29 41.306073 -112.202970 135 13974ft 360kts
13-Nov-18 20:30 41.237455 -112.117191 137 11962ft 305kts
13-Nov-18 20:31 41.168328 -112.069839 152 11512ft 272kts
13-Nov-18 20:32 41.099555 -112.033711 174 10163ft 271kts
13-Nov-18 20:33 41.027846 -112.024983 173 8684ft 252kts
13-Nov-18 20:34 40.962778 -112.017310 176 7365ft 233kts
13-Nov-18 20:35 40.905326 -112.010621 176 6201ft 195kts
13-Nov-18 20:36 40.862519 -112.005647 176 5326ft 148kts
13-Nov-18 20:37 40.823500 -112.000973 177 4573ft 141kts
13-Nov-18 20:38 40.792244 -111.997297 152 4239ft 21kts
13-Nov-18 20:39 40.790914 -111.994834 87 4239ft 9kts
13-Nov-18 20:40 40.791369 -111.988642 86 4239ft 28kts
13-Nov-18 20:41 40.790134 -111.984751 131 4239ft 10kts
13-Nov-18 20:42 40.789221 -111.984510 234 4239ft 0kts
13-Nov-18 20:43 40.789221 -111.984510 234 4239ft 0kts
13-Nov-18 20:44 40.789221 -111.984510 234 4239ft 0kts
13-Nov-18 20:45 40.789221 -111.984510 234 4239ft 0kts
13-Nov-18 20:46 40.789221 -111.984510 234 4239ft 0kts
13-Nov-18 20:47 40.789221 -111.984510 234 4239ft 0kts
13-Nov-18 20:48 40.789221 -111.984510 234 4239ft 0kts
13-Nov-18 20:49 40.789221 -111.984510 234 4239ft 0kts
13-Nov-18 20:50 40.789221 -111.984510 234 4239ft 0kts

Navigation Log

Ident Type
Flight plan parsing failed, navigation log unavailable